Terminal Aerodrome Forecast (TAF)

TAF

Data at: 1125 UTC 29 May 2020

TAF for:NVSC (Sola/Vanua Lava Arpt, --, NV) issued at 1000 UTC 29 May 2020
Text:TAF NVSC 291000Z 2912/3012 14005KT 9999 BKN020
Forecast period:1200 UTC 29 May 2020 to 1200 UTC 30 May 2020
Forecast type:FROM: standard forecast or significant change
Winds:from the SE (140 degrees) at 6 MPH (5 knots; 2.6 m/s)
Visibility:6 or more sm (10+ km)
Ceiling:2000 feet AGL
Clouds: broken clouds at 2000 feet AGL
Text:PROB30
Forecast period:1200 to 1800 UTC 29 May 2020
Forecast type:TEMPORARY: The following changes expected for less than half the time period
Visibility: 6 sm ( 9 km)
Ceiling:1800 feet AGL
Clouds: broken clouds at 1800 feet AGL
Weather:-SHRA (light rain showers)

TAF

Data at: 1125 UTC 29 May 2020

TAF for:NVSG (Longana Arpt, --, NV) issued at 1000 UTC 29 May 2020
Text:TAF NVSG 291000Z 2912/3012 VRB04KT 9999 SCT020
Forecast period:1200 UTC 29 May 2020 to 1200 UTC 30 May 2020
Forecast type:FROM: standard forecast or significant change
Winds:variable direction winds at 5 MPH (4 knots; 2.1 m/s)
Visibility:6 or more sm (10+ km)
Ceiling:at least 12,000 feet AGL
Clouds: scattered clouds at 2000 feet AGL
Text:PROB30
Forecast period:1200 to 1800 UTC 29 May 2020
Forecast type:TEMPORARY: The following changes expected for less than half the time period
Visibility: 6 sm ( 9 km)
Ceiling:1800 feet AGL
Clouds: broken clouds at 1800 feet AGL
Weather:-SHRA (light rain showers)

TAF

Data at: 1125 UTC 29 May 2020

TAF for:NVSS (Santo/Pekoa Intl, --, NV) issued at 1000 UTC 29 May 2020
Text:TAF NVSS 291000Z 2912/3012 VRB02KT 9999 SCT020
Forecast period:1200 UTC 29 May 2020 to 1200 UTC 30 May 2020
Forecast type:FROM: standard forecast or significant change
Winds:variable direction winds at 2 MPH (2 knots; 1.0 m/s)
Visibility:6 or more sm (10+ km)
Ceiling:at least 12,000 feet AGL
Clouds: scattered clouds at 2000 feet AGL

TAF

Data at: 1125 UTC 29 May 2020

TAF for:NVSL (Malekula/Lamap, --, NV) issued at 1000 UTC 29 May 2020
Text:TAF NVSL 291000Z 2912/3012 VRB04KT 9999 SCT020
Forecast period:1200 UTC 29 May 2020 to 1200 UTC 30 May 2020
Forecast type:FROM: standard forecast or significant change
Winds:variable direction winds at 5 MPH (4 knots; 2.1 m/s)
Visibility:6 or more sm (10+ km)
Ceiling:at least 12,000 feet AGL
Clouds: scattered clouds at 2000 feet AGL
Text:PROB40
Forecast period:1200 to 1800 UTC 29 May 2020
Forecast type:TEMPORARY: The following changes expected for less than half the time period
Visibility: 6 sm ( 9 km)
Ceiling:1800 feet AGL
Clouds: broken clouds at 1800 feet AGL
Weather:-SHRA (light rain showers)

TAF

Data at: 1125 UTC 29 May 2020

TAF for:NVSP (Norsup Arpt, --, NV) issued at 1000 UTC 29 May 2020
Text:TAF NVSP 291000Z 2912/3012 VRB04KT 9999 SCT020
Forecast period:1200 UTC 29 May 2020 to 1200 UTC 30 May 2020
Forecast type:FROM: standard forecast or significant change
Winds:variable direction winds at 5 MPH (4 knots; 2.1 m/s)
Visibility:6 or more sm (10+ km)
Ceiling:at least 12,000 feet AGL
Clouds: scattered clouds at 2000 feet AGL
Text:PROB40
Forecast period:1200 to 1800 UTC 29 May 2020
Forecast type:TEMPORARY: The following changes expected for less than half the time period
Visibility: 6 sm ( 9 km)
Ceiling:1800 feet AGL
Clouds: broken clouds at 1800 feet AGL
Weather:-SHRA (light rain showers)

TAF

Data at: 1125 UTC 29 May 2020

TAF for:NVVV (Efate/Bauerfield Int, --, NV) issued at 1000 UTC 29 May 2020
Text:TAF NVVV 291000Z 2912/3012 VRB02KT 9999 SCT020
Forecast period:1200 UTC 29 May 2020 to 1200 UTC 30 May 2020
Forecast type:FROM: standard forecast or significant change
Winds:variable direction winds at 2 MPH (2 knots; 1.0 m/s)
Visibility:6 or more sm (10+ km)
Ceiling:at least 12,000 feet AGL
Clouds: scattered clouds at 2000 feet AGL
Text:PROB30
Forecast period:1200 to 1800 UTC 29 May 2020
Forecast type:TEMPORARY: The following changes expected for less than half the time period
Visibility: 6 sm ( 9 km)
Ceiling:1800 feet AGL
Clouds: broken clouds at 1800 feet AGL
Weather:-SHRA (light rain showers)

TAF

Data at: 1125 UTC 29 May 2020

TAF for:NVVW (Tanna Arpt, --, NV) issued at 1000 UTC 29 May 2020
Text:TAF NVVW 291000Z 2912/3012 VRB02KT 9999 SCT020
Forecast period:1200 UTC 29 May 2020 to 1200 UTC 30 May 2020
Forecast type:FROM: standard forecast or significant change
Winds:variable direction winds at 2 MPH (2 knots; 1.0 m/s)
Visibility:6 or more sm (10+ km)
Ceiling:at least 12,000 feet AGL
Clouds: scattered clouds at 2000 feet AGL
Text:PROB30
Forecast period:1200 to 1800 UTC 29 May 2020
Forecast type:TEMPORARY: The following changes expected for less than half the time period
Visibility: 6 sm ( 9 km)
Ceiling:1800 feet AGL
Clouds: broken clouds at 1800 feet AGL
Weather:-SHRA (light rain showers)

TAF

Data at: 1125 UTC 29 May 2020

TAF for:NVVA (Aneityum/Mystery Isl, --, NV) issued at 1000 UTC 29 May 2020
Text:TAF NVVA 291000Z 2912/3012 VRB02KT 9999 SCT020
Forecast period:1200 UTC 29 May 2020 to 1200 UTC 30 May 2020
Forecast type:FROM: standard forecast or significant change
Winds:variable direction winds at 2 MPH (2 knots; 1.0 m/s)
Visibility:6 or more sm (10+ km)
Ceiling:at least 12,000 feet AGL
Clouds: scattered clouds at 2000 feet AGL
Text:PROB30
Forecast period:1200 to 1800 UTC 29 May 2020
Forecast type:TEMPORARY: The following changes expected for less than half the time period
Visibility: 6 sm ( 9 km)
Ceiling:1800 feet AGL
Clouds: broken clouds at 1800 feet AGL
Weather:-SHRA (light rain showers)

TAF

Data at: 1125 UTC 29 May 2020

TAF NVVV 291000Z 2912/3012 VRB02KT 9999 SCT020
  PROB30
  INTER 2912/2918 9000 -SHRA BKN018
TAF NVSC 291000Z 2912/3012 14005KT 9999 BKN020
  PROB30
  INTER 2912/2918 9000 -SHRA BKN018
TAF NVSG 291000Z 2912/3012 VRB04KT 9999 SCT020
  PROB30
  INTER 2912/2918 9000 -SHRA BKN018
TAF NVSS 291000Z 2912/3012 VRB02KT 9999 SCT020
TAF NVSL 291000Z 2912/3012 VRB04KT 9999 SCT020
  PROB40
  INTER 2912/2918 9000 -SHRA BKN018
TAF NVSP 291000Z 2912/3012 VRB04KT 9999 SCT020
  PROB40
  INTER 2912/2918 9000 -SHRA BKN018
TAF NVVW 291000Z 2912/3012 VRB02KT 9999 SCT020
  PROB30
  INTER 2912/2918 9000 -SHRA BKN018
TAF NVVA 291000Z 2912/3012 VRB02KT 9999 SCT020
  PROB30
  INTER 2912/2918 9000 -SHRA BKN018